createdAt,value
2022-11-16T00:00:42.897Z,12.63
2022-11-16T00:03:11.844Z,12.20
2022-11-16T00:05:56.145Z,12.52
2022-11-16T00:08:24.762Z,13.88
2022-11-16T00:10:55.281Z,14.13
2022-11-16T00:13:24.096Z,10.68
2022-11-16T00:16:13.385Z,13.18
2022-11-16T00:19:01.909Z,15.27
2022-11-16T00:21:33.991Z,15.15
2022-11-16T00:24:02.558Z,17.98
2022-11-16T00:26:30.741Z,20.67
2022-11-16T00:28:59.040Z,15.55
2022-11-16T00:31:28.536Z,13.90
2022-11-16T00:33:57.008Z,14.20
2022-11-16T00:36:25.597Z,18.35
2022-11-16T00:38:55.864Z,19.13
2022-11-16T00:41:24.199Z,20.75
2022-11-16T00:43:57.008Z,21.33
2022-11-16T00:49:34.247Z,18.75
2022-11-16T00:52:32.333Z,19.83
2022-11-16T00:55:03.536Z,18.63
2022-11-16T00:57:46.977Z,20.77
2022-11-16T01:00:22.484Z,17.45
2022-11-16T01:03:20.852Z,20.42
2022-11-16T01:06:10.412Z,16.45
2022-11-16T01:08:58.863Z,21.55
2022-11-16T01:11:44.335Z,16.17
2022-11-16T01:14:12.546Z,17.25
2022-11-16T01:16:40.549Z,18.05
2022-11-16T01:19:10.699Z,14.73
2022-11-16T01:21:38.815Z,15.35
2022-11-16T01:24:07.430Z,14.50
2022-11-16T01:27:29.335Z,14.65
2022-11-16T01:30:10.101Z,16.98
2022-11-16T01:33:02.964Z,15.63
2022-11-16T01:35:54.295Z,15.45
2022-11-16T01:38:56.155Z,16.25
2022-11-16T01:41:30.231Z,28.40
2022-11-16T01:44:36.528Z,20.73
2022-11-16T01:50:15.589Z,21.60
2022-11-16T01:53:02.432Z,22.42
2022-11-16T01:55:37.287Z,26.13
2022-11-16T01:58:07.097Z,17.90
2022-11-16T02:00:35.242Z,19.75
2022-11-16T02:03:03.198Z,16.90
2022-11-16T02:05:40.950Z,20.67
2022-11-16T02:08:44.229Z,21.98
2022-11-16T02:11:31.368Z,23.38
2022-11-16T02:14:08.039Z,25.52
2022-11-16T02:16:46.772Z,30.10
2022-11-16T02:19:45.148Z,28.15
2022-11-16T02:22:24.038Z,30.83
2022-11-16T02:25:01.971Z,27.15
2022-11-16T02:28:02.511Z,29.98
2022-11-16T02:30:32.171Z,24.80
2022-11-16T02:33:04.100Z,24.83
2022-11-16T02:35:38.224Z,24.45
2022-11-16T02:38:11.519Z,25.00
2022-11-16T02:40:46.268Z,27.27
2022-11-16T02:43:21.348Z,24.38
2022-11-16T02:46:00.118Z,23.67
2022-11-16T02:48:33.379Z,22.77
2022-11-16T02:51:07.101Z,20.42
2022-11-16T02:53:45.763Z,21.70
2022-11-16T02:56:15.669Z,19.42
2022-11-16T02:58:45.816Z,24.77
2022-11-16T03:01:22.660Z,19.83
2022-11-16T03:03:58.147Z,21.52
2022-11-16T03:06:32.921Z,23.05
2022-11-16T03:09:06.526Z,20.15
2022-11-16T03:11:56.200Z,19.05
2022-11-16T03:14:31.264Z,17.98
2022-11-16T03:17:04.183Z,18.40
2022-11-16T03:19:38.800Z,27.67
2022-11-16T03:22:12.397Z,23.23
2022-11-16T03:24:41.655Z,22.50
2022-11-16T03:27:17.612Z,29.85
2022-11-16T03:29:56.607Z,28.17
2022-11-16T03:32:31.536Z,33.92
2022-11-16T03:35:05.833Z,30.33
2022-11-16T03:37:36.825Z,30.83
2022-11-16T03:40:07.518Z,31.27
2022-11-16T03:42:36.311Z,26.33
2022-11-16T03:45:06.365Z,27.15
2022-11-16T03:47:39.080Z,24.27
2022-11-16T03:50:08.632Z,27.35
2022-11-16T03:52:37.560Z,25.42
2022-11-16T03:55:08.544Z,25.45
2022-11-16T03:57:37.367Z,23.98
2022-11-16T04:00:07.318Z,24.48
2022-11-16T04:02:39.357Z,24.30
2022-11-16T04:05:25.418Z,23.92
2022-11-16T04:08:10.933Z,16.85
2022-11-16T04:10:56.046Z,22.65
2022-11-16T04:13:47.102Z,21.77
2022-11-16T04:16:32.688Z,23.58
2022-11-16T04:19:19.945Z,23.73
2022-11-16T04:22:08.595Z,22.30
2022-11-16T04:24:40.201Z,21.33
2022-11-16T04:27:29.615Z,26.23
2022-11-16T04:29:59.017Z,23.73
2022-11-16T04:32:44.685Z,24.90
2022-11-16T04:35:42.944Z,22.83
2022-11-16T04:38:11.071Z,27.30
2022-11-16T04:40:39.124Z,18.75
2022-11-16T04:43:06.481Z,24.15
2022-11-16T04:45:52.611Z,33.85
2022-11-16T04:48:22.146Z,27.23
2022-11-16T04:50:52.822Z,25.73
2022-11-16T04:53:27.958Z,26.58
2022-11-16T04:56:00.646Z,27.13
2022-11-16T04:58:29.115Z,29.55
2022-11-16T05:00:57.150Z,34.58
2022-11-16T05:03:25.241Z,25.10
2022-11-16T05:05:54.729Z,33.00
2022-11-16T05:08:22.728Z,23.27
2022-11-16T05:10:52.156Z,27.85
2022-11-16T05:13:20.196Z,20.20
2022-11-16T05:15:48.115Z,26.70
2022-11-16T05:18:17.278Z,27.35
2022-11-16T05:21:02.660Z,23.00
2022-11-16T05:23:49.762Z,23.42
2022-11-16T05:29:54.958Z,19.67
2022-11-16T05:33:01.716Z,22.52
2022-11-16T05:36:03.110Z,26.88
2022-11-16T05:39:22.292Z,30.50
2022-11-16T05:42:01.313Z,26.55
2022-11-16T05:45:21.433Z,25.33
2022-11-16T05:47:51.307Z,22.13
2022-11-16T05:50:19.702Z,25.90
2022-11-16T05:52:47.975Z,25.52
2022-11-16T05:55:17.821Z,26.30
2022-11-16T05:57:48.568Z,24.35
2022-11-16T06:00:18.141Z,23.73
2022-11-16T06:02:46.209Z,25.90
2022-11-16T06:05:14.336Z,24.60
2022-11-16T06:07:42.283Z,25.52
2022-11-16T06:10:10.886Z,22.27
2022-11-16T06:12:40.176Z,25.20
2022-11-16T06:15:09.008Z,27.52
2022-11-16T06:17:36.902Z,29.95
2022-11-16T06:20:05.285Z,23.58
2022-11-16T06:22:33.227Z,28.23
2022-11-16T06:25:01.347Z,28.98
2022-11-16T06:27:29.289Z,29.85
2022-11-16T06:29:58.623Z,26.63
2022-11-16T06:32:26.556Z,23.98
2022-11-16T06:34:55.345Z,28.58
2022-11-16T06:37:23.210Z,28.45
2022-11-16T06:39:51.195Z,23.92
2022-11-16T06:42:19.148Z,25.92
2022-11-16T06:44:47.456Z,30.80
2022-11-16T06:47:16.958Z,25.33
2022-11-16T06:49:45.412Z,22.95
2022-11-16T06:52:13.452Z,25.70
2022-11-16T06:54:42.699Z,24.65
2022-11-16T06:57:10.594Z,24.70
2022-11-16T06:59:40.509Z,21.65
2022-11-16T07:02:08.584Z,23.17
2022-11-16T07:04:38.007Z,22.67
2022-11-16T07:07:05.958Z,26.63
2022-11-16T07:09:35.898Z,23.58
2022-11-16T07:12:04.968Z,25.25
2022-11-16T07:14:33.103Z,18.17
2022-11-16T07:17:05.205Z,21.73
2022-11-16T07:19:37.749Z,24.95
2022-11-16T07:22:10.619Z,25.23
2022-11-16T07:24:39.550Z,22.50
2022-11-16T07:27:08.732Z,23.10
2022-11-16T07:29:36.633Z,22.42
2022-11-16T07:32:04.565Z,30.73
2022-11-16T07:34:32.456Z,34.97
2022-11-16T07:37:01.736Z,32.67
2022-11-16T07:39:29.706Z,26.05
2022-11-16T07:41:57.645Z,26.05
2022-11-16T07:44:25.592Z,29.40
2022-11-16T07:46:55.394Z,25.98
2022-11-16T07:49:23.308Z,30.80
2022-11-16T07:51:51.291Z,26.35
2022-11-16T07:54:20.599Z,25.42
2022-11-16T07:56:50.573Z,26.83
2022-11-16T07:59:19.014Z,25.92
2022-11-16T08:01:48.106Z,24.25
2022-11-16T08:04:17.480Z,25.63
2022-11-16T08:06:46.815Z,22.58
2022-11-16T08:09:14.983Z,20.52
2022-11-16T08:11:44.273Z,22.35
2022-11-16T08:14:12.964Z,15.63
2022-11-16T08:16:41.929Z,17.92
2022-11-16T08:19:10.277Z,16.40
2022-11-16T08:21:38.350Z,18.42
2022-11-16T08:24:06.743Z,15.57
2022-11-16T08:26:34.680Z,16.38
2022-11-16T08:29:03.969Z,18.58
2022-11-16T08:31:31.942Z,15.65
2022-11-16T08:34:01.302Z,11.57
2022-11-16T08:36:29.580Z,13.73
2022-11-16T08:38:58.074Z,8.80
2022-11-16T08:41:26.111Z,13.93
2022-11-16T08:43:57.109Z,13.48
2022-11-16T08:46:26.464Z,11.82
2022-11-16T08:48:57.136Z,6.65
2022-11-16T08:51:25.987Z,6.32
2022-11-16T08:53:57.277Z,9.50
2022-11-16T08:56:27.066Z,5.78
2022-11-16T08:58:59.563Z,8.60
2022-11-16T09:03:58.271Z,6.97
2022-11-16T09:06:29.129Z,10.68
2022-11-16T09:09:00.184Z,8.40
2022-11-16T09:11:28.485Z,8.68
2022-11-16T09:13:57.240Z,8.80
2022-11-16T09:16:26.611Z,9.50
2022-11-16T09:18:56.617Z,4.97
2022-11-16T09:21:26.531Z,7.80
2022-11-16T09:23:56.096Z,5.22
2022-11-16T09:26:27.348Z,7.05
2022-11-16T09:29:00.515Z,9.55
2022-11-16T09:31:32.699Z,6.57
2022-11-16T09:34:02.825Z,5.68
2022-11-16T09:36:31.434Z,4.40
2022-11-16T09:39:30.713Z,7.63
2022-11-16T09:42:04.659Z,5.68
2022-11-16T09:44:42.100Z,6.70
2022-11-16T09:47:17.292Z,2.50
2022-11-16T09:49:52.176Z,4.22
2022-11-16T09:52:27.421Z,3.13
2022-11-16T09:54:57.654Z,9.18
2022-11-16T09:57:30.336Z,5.75
2022-11-16T10:00:02.318Z,6.95
2022-11-16T10:02:36.645Z,5.30
2022-11-16T10:05:14.788Z,2.58
2022-11-16T10:07:45.938Z,2.92
2022-11-16T10:10:14.741Z,3.03
2022-11-16T10:12:47.032Z,4.57
2022-11-16T10:15:35.502Z,2.78
2022-11-16T10:18:16.248Z,3.55
2022-11-16T10:20:55.052Z,3.92
2022-11-16T10:23:38.035Z,2.67
2022-11-16T10:26:15.733Z,7.03
2022-11-16T10:29:10.037Z,5.18
2022-11-16T10:31:53.724Z,3.53
2022-11-16T10:34:26.187Z,5.30
2022-11-16T10:39:27.445Z,4.07
2022-11-16T10:41:59.374Z,8.90
2022-11-16T10:44:37.323Z,4.90
2022-11-16T10:47:13.461Z,6.85
2022-11-16T10:49:50.307Z,3.20
2022-11-16T10:52:19.728Z,5.60
2022-11-16T10:54:47.636Z,3.75
2022-11-16T10:57:17.011Z,3.35
2022-11-16T10:59:47.107Z,4.45
2022-11-16T11:02:34.619Z,4.47
2022-11-16T11:05:08.938Z,5.57
2022-11-16T11:07:40.520Z,6.15
2022-11-16T11:10:31.058Z,4.82
2022-11-16T11:13:05.238Z,3.75
2022-11-16T11:15:33.732Z,4.25
2022-11-16T11:18:13.722Z,4.38
2022-11-16T11:20:45.323Z,3.50
2022-11-16T11:23:18.081Z,4.25
2022-11-16T11:25:54.695Z,4.97
2022-11-16T11:28:26.488Z,3.20
2022-11-16T11:31:01.492Z,4.63
2022-11-16T11:33:32.148Z,5.53
2022-11-16T11:36:04.078Z,3.67
2022-11-16T11:38:34.079Z,7.85
2022-11-16T11:41:05.174Z,6.00
2022-11-16T11:43:34.991Z,3.15
2022-11-16T11:46:14.050Z,3.72
2022-11-16T11:48:50.405Z,3.63
2022-11-16T11:51:23.533Z,5.18
2022-11-16T11:53:59.652Z,1.90
2022-11-16T11:56:31.779Z,6.53
2022-11-16T11:58:59.825Z,2.67
2022-11-16T12:02:09.474Z,4.15
2022-11-16T12:04:58.168Z,4.70
2022-11-16T12:07:42.691Z,3.70
2022-11-16T12:10:22.489Z,3.88
2022-11-16T12:13:03.922Z,4.82
2022-11-16T12:15:40.130Z,3.00
2022-11-16T12:18:23.677Z,4.20
2022-11-16T12:20:59.109Z,2.10
2022-11-16T12:23:47.663Z,5.80
2022-11-16T12:26:28.974Z,4.30
2022-11-16T12:29:08.000Z,3.03
2022-11-16T12:31:53.145Z,3.38
2022-11-16T12:34:33.192Z,5.45
2022-11-16T12:37:07.895Z,3.90
2022-11-16T12:39:39.728Z,3.28
2022-11-16T12:42:32.834Z,3.53
2022-11-16T12:45:25.349Z,2.75
2022-11-16T12:48:18.596Z,2.03
2022-11-16T12:50:54.469Z,2.20
2022-11-16T12:53:53.578Z,2.92
2022-11-16T12:56:31.004Z,3.55
2022-11-16T12:59:25.095Z,2.53
2022-11-16T13:02:01.348Z,1.75
2022-11-16T13:04:34.095Z,2.53
2022-11-16T13:07:10.961Z,2.40
2022-11-16T13:09:44.217Z,3.10
2022-11-16T13:12:17.116Z,6.07
2022-11-16T13:14:48.690Z,2.17
2022-11-16T13:17:21.521Z,5.93
2022-11-16T13:20:06.271Z,10.30
2022-11-16T13:22:40.599Z,4.68
2022-11-16T13:25:18.538Z,4.67
2022-11-16T13:27:52.842Z,2.70
2022-11-16T13:30:23.598Z,2.53
2022-11-16T13:33:12.181Z,6.00
2022-11-16T13:35:40.251Z,5.10
2022-11-16T13:38:12.436Z,4.60
2022-11-16T13:40:40.815Z,4.53
2022-11-16T13:43:18.144Z,6.88
2022-11-16T13:45:57.006Z,3.08
2022-11-16T13:48:28.804Z,4.53
2022-11-16T13:50:58.797Z,4.40
2022-11-16T13:56:20.200Z,2.80
2022-11-16T13:58:54.923Z,3.42
2022-11-16T14:01:24.764Z,3.25
2022-11-16T14:04:13.980Z,6.75
2022-11-16T14:07:00.376Z,2.60
2022-11-16T14:09:48.890Z,4.28
2022-11-16T14:12:57.323Z,4.28
2022-11-16T14:15:31.165Z,4.43
2022-11-16T14:18:37.057Z,3.85
2022-11-16T14:21:16.216Z,6.43
2022-11-16T14:24:16.603Z,3.83
2022-11-16T14:26:59.587Z,5.68
2022-11-16T14:29:54.568Z,5.53
2022-11-16T14:32:25.632Z,5.47
2022-11-16T14:34:56.796Z,4.35
2022-11-16T14:37:36.912Z,4.22
2022-11-16T14:40:15.162Z,1.65
2022-11-16T14:43:14.924Z,4.72
2022-11-16T14:45:40.168Z,3.78
2022-11-16T14:48:16.214Z,2.92
2022-11-16T14:50:49.476Z,3.58
2022-11-16T14:53:22.166Z,2.45
2022-11-16T14:55:50.046Z,4.78
2022-11-16T14:58:19.773Z,6.72
2022-11-16T15:00:54.893Z,6.22
2022-11-16T15:03:24.698Z,5.43
2022-11-16T15:05:57.831Z,5.28
2022-11-16T15:08:32.001Z,1.30
2022-11-16T15:11:00.873Z,3.42
2022-11-16T15:13:29.026Z,7.38
2022-11-16T15:16:10.597Z,1.98
2022-11-16T15:18:41.310Z,3.13
2022-11-16T15:21:23.320Z,5.15
2022-11-16T15:24:23.459Z,1.88
2022-11-16T15:26:42.375Z,7.45
2022-11-16T15:29:16.548Z,2.90
2022-11-16T15:31:45.658Z,4.65
2022-11-16T15:34:14.930Z,4.97
2022-11-16T15:36:44.675Z,8.88
2022-11-16T15:39:16.655Z,6.38
2022-11-16T15:41:46.073Z,4.65
2022-11-16T15:44:17.051Z,3.72
2022-11-16T15:46:50.789Z,5.35
2022-11-16T15:49:32.091Z,3.85
2022-11-16T15:52:01.903Z,6.65
2022-11-16T15:54:53.467Z,6.55
2022-11-16T15:57:23.215Z,6.63
2022-11-16T15:59:54.603Z,7.10
2022-11-16T16:02:25.148Z,7.95
2022-11-16T16:04:54.760Z,15.02
2022-11-16T16:07:41.153Z,12.15
2022-11-16T16:10:25.688Z,13.30
2022-11-16T16:12:54.862Z,6.45
2022-11-16T16:15:25.689Z,6.60
2022-11-16T16:17:54.921Z,5.90
2022-11-16T16:20:25.521Z,4.43
2022-11-16T16:22:55.385Z,5.85
2022-11-16T16:25:31.410Z,3.40
2022-11-16T16:27:59.860Z,4.40
2022-11-16T16:30:31.895Z,5.07
2022-11-16T16:33:04.308Z,7.97
2022-11-16T16:38:02.505Z,6.20
2022-11-16T16:40:30.661Z,6.40
2022-11-16T16:42:58.977Z,4.80
2022-11-16T16:45:34.929Z,5.13
2022-11-16T16:48:03.068Z,6.15
2022-11-16T16:50:31.105Z,7.20
2022-11-16T16:52:59.326Z,9.70
2022-11-16T16:55:31.698Z,4.72
2022-11-16T16:58:02.967Z,5.80
2022-11-16T17:00:30.951Z,6.70
2022-11-16T17:02:59.567Z,6.57
2022-11-16T17:05:27.602Z,10.80
2022-11-16T17:07:56.224Z,4.25
2022-11-16T17:10:24.683Z,9.93
2022-11-16T17:12:55.996Z,5.10
2022-11-16T17:15:24.445Z,6.63
2022-11-16T17:17:52.952Z,7.15
2022-11-16T17:20:20.985Z,4.18
2022-11-16T17:22:49.202Z,2.55
2022-11-16T17:25:17.264Z,8.98
2022-11-16T17:27:45.192Z,8.07
2022-11-16T17:30:15.607Z,6.07
2022-11-16T17:32:43.523Z,5.53
2022-11-16T17:35:11.864Z,6.95
2022-11-16T17:37:48.954Z,6.60
2022-11-16T17:40:17.063Z,5.40
2022-11-16T17:42:45.063Z,38.33
2022-11-16T17:45:14.436Z,7.47
2022-11-16T17:47:45.412Z,6.65
2022-11-16T17:50:14.012Z,4.65
2022-11-16T17:52:45.060Z,6.85
2022-11-16T17:55:13.074Z,4.18
2022-11-16T17:57:40.931Z,7.15
2022-11-16T18:00:10.089Z,4.57
2022-11-16T18:02:42.661Z,10.18
2022-11-16T18:07:41.211Z,5.55
2022-11-16T18:10:12.677Z,5.80
2022-11-16T18:12:42.964Z,10.25
2022-11-16T18:15:27.861Z,7.03
2022-11-16T18:17:58.415Z,4.70
2022-11-16T18:20:27.659Z,4.05
2022-11-16T18:22:55.668Z,2.70
2022-11-16T18:25:23.868Z,6.50
2022-11-16T18:27:53.746Z,8.55
2022-11-16T18:30:22.577Z,3.33
2022-11-16T18:32:53.966Z,4.63
2022-11-16T18:35:23.294Z,8.40
2022-11-16T18:37:51.319Z,5.72
2022-11-16T18:40:19.370Z,6.35
2022-11-16T18:42:47.460Z,4.85
2022-11-16T18:45:15.384Z,7.47
2022-11-16T18:47:43.356Z,4.72
2022-11-16T18:50:18.965Z,6.15
2022-11-16T18:52:49.568Z,5.10
2022-11-16T18:55:17.635Z,3.83
2022-11-16T18:57:45.578Z,4.93
2022-11-16T19:00:15.181Z,3.00
2022-11-16T19:02:43.208Z,6.53
2022-11-16T19:05:13.325Z,4.50
2022-11-16T19:07:41.341Z,2.55
2022-11-16T19:10:11.850Z,2.75
2022-11-16T19:12:39.816Z,4.72
2022-11-16T19:15:08.549Z,3.55
2022-11-16T19:17:53.116Z,3.17
2022-11-16T19:20:24.602Z,5.05
2022-11-16T19:22:55.560Z,10.68
2022-11-16T19:25:24.931Z,11.05
2022-11-16T19:27:52.941Z,6.75
2022-11-16T19:30:21.183Z,2.38
2022-11-16T19:32:49.480Z,4.72
2022-11-16T19:35:18.667Z,6.07
2022-11-16T19:37:49.320Z,8.38
2022-11-16T19:40:23.693Z,7.43
2022-11-16T19:42:55.249Z,4.25
2022-11-16T19:45:26.368Z,4.65
2022-11-16T19:47:56.613Z,3.72
2022-11-16T19:50:25.250Z,4.05
2022-11-16T19:52:53.365Z,3.42
2022-11-16T19:55:21.421Z,6.15
2022-11-16T19:57:49.674Z,6.82
2022-11-16T20:00:19.702Z,4.50
2022-11-16T20:02:47.869Z,5.22
2022-11-16T20:05:16.333Z,6.00
2022-11-16T20:07:44.670Z,8.30
2022-11-16T20:10:12.666Z,6.63
2022-11-16T20:12:41.094Z,5.53
2022-11-16T20:15:09.769Z,4.30
2022-11-16T20:17:39.178Z,4.00
2022-11-16T20:20:08.347Z,4.97
2022-11-16T20:22:36.265Z,5.45
2022-11-16T20:25:04.452Z,7.50
2022-11-16T20:27:32.434Z,5.35
2022-11-16T20:30:03.741Z,6.10
2022-11-16T20:32:34.503Z,5.75
2022-11-16T20:35:03.929Z,6.45
2022-11-16T20:37:34.821Z,4.80
2022-11-16T20:40:05.634Z,6.68
2022-11-16T20:42:33.524Z,4.65
2022-11-16T20:45:06.738Z,8.50
2022-11-16T20:47:34.759Z,6.20
2022-11-16T20:50:07.513Z,5.85
2022-11-16T20:52:39.656Z,6.68
2022-11-16T20:55:11.219Z,7.65
2022-11-16T20:57:39.301Z,6.97
2022-11-16T21:00:08.536Z,9.00
2022-11-16T21:02:36.810Z,7.35
2022-11-16T21:05:06.980Z,6.10
2022-11-16T21:07:35.368Z,11.13
2022-11-16T21:10:21.645Z,8.98
2022-11-16T21:13:08.001Z,8.52
2022-11-16T21:15:36.135Z,6.30
2022-11-16T21:18:04.100Z,7.47
2022-11-16T21:20:38.283Z,6.35
2022-11-16T21:23:06.338Z,5.82
2022-11-16T21:25:34.310Z,8.98
2022-11-16T21:28:02.268Z,4.65
2022-11-16T21:30:30.213Z,9.40
2022-11-16T21:32:58.287Z,6.18
2022-11-16T21:35:27.146Z,7.32
2022-11-16T21:37:56.508Z,7.32
2022-11-16T21:40:24.379Z,4.82
2022-11-16T21:42:52.647Z,7.25
2022-11-16T21:45:20.552Z,7.07
2022-11-16T21:47:48.514Z,10.95
2022-11-16T21:50:31.159Z,5.45
2022-11-16T21:53:01.688Z,9.88
2022-11-16T21:55:29.724Z,8.55
2022-11-16T21:57:57.974Z,10.05
2022-11-16T22:00:26.216Z,8.77
2022-11-16T22:03:03.213Z,8.90
2022-11-16T22:05:48.545Z,7.72
2022-11-16T22:08:17.998Z,5.88
2022-11-16T22:10:52.982Z,8.02
2022-11-16T22:13:21.248Z,7.68
2022-11-16T22:15:49.276Z,9.88
2022-11-16T22:18:17.229Z,9.00
2022-11-16T22:20:48.749Z,7.93
2022-11-16T22:23:22.700Z,7.72
2022-11-16T22:25:51.959Z,8.50
2022-11-16T22:28:21.212Z,9.52
2022-11-16T22:30:52.030Z,6.25
2022-11-16T22:33:20.427Z,8.00
2022-11-16T22:35:49.390Z,4.68
2022-11-16T22:38:18.811Z,6.65
2022-11-16T22:40:50.601Z,6.95
2022-11-16T22:43:18.863Z,5.97
2022-11-16T22:45:46.795Z,9.88
2022-11-16T22:48:15.162Z,5.13
2022-11-16T22:50:43.267Z,8.90
2022-11-16T22:53:11.733Z,7.85
2022-11-16T22:55:43.805Z,9.85
2022-11-16T22:58:11.697Z,6.60
2022-11-16T23:00:42.150Z,7.47
2022-11-16T23:03:10.571Z,6.72
2022-11-16T23:05:39.811Z,7.40
2022-11-16T23:08:07.782Z,5.30
2022-11-16T23:10:57.494Z,2.83
2022-11-16T23:13:44.479Z,8.45
2022-11-16T23:16:12.503Z,4.57
2022-11-16T23:18:40.479Z,5.47
2022-11-16T23:21:26.125Z,4.97
2022-11-16T23:24:11.325Z,5.07
2022-11-16T23:26:57.740Z,3.03
2022-11-16T23:29:27.152Z,2.88
2022-11-16T23:31:55.059Z,7.22
2022-11-16T23:34:23.026Z,6.30
2022-11-16T23:36:50.945Z,7.45
2022-11-16T23:39:19.092Z,4.03
2022-11-16T23:42:04.813Z,4.18
2022-11-16T23:44:34.299Z,5.07
2022-11-16T23:47:03.468Z,5.13
2022-11-16T23:49:31.505Z,3.00
2022-11-16T23:51:59.490Z,2.85
2022-11-16T23:54:27.472Z,7.88
2022-11-16T23:56:55.360Z,3.25
2022-11-16T23:59:23.731Z,4.88
